Traverse City, MI

1:13 AM EDT on September 04, 2015 (GMT -0400)
Hills of Westbrook | | Change Station
CLOSE
Current Station
Personal Weather Station
Location: Traverse City, MI
Elevation: 1043 ft
Nearby Weather Stations

Elev 1043 ft 44.76 °N, 85.69 °W | Updated 3 seconds ago

Overcast
Overcast
66.9 °F
Feels Like 66.9 °F
N
5.1
Wind Variable Wind from ENE
Gusts 7.4 mph

Today
High -- | Low -- °F
--% Chance of Precip.
Yesterday
High -- | Low -- °F
Precip. -- in
7:08 AM 8:14 PM
Waning Gibbous, 63% visible
Pressure 29.94 in
Visibility 10.0 miles
Clouds Mostly Cloudy 3300 ft
Overcast 4900 ft
Dew Point 67 °F
Humidity 99%
Rainfall 0.00 in
Snow Depth Not available.
UV 0 out of 12
Pollen 9.80 out of 12
Air Quality Not available.
Flu Activity Not available.
METAR KTVC 040453Z 08005KT 10SM BKN033 OVC049 21/18 A2995 RMK AO2 SLP138 T02060183 402280206
Pressure 29.94 in
Visibility 10.0 miles
Clouds Mostly Cloudy 3300 ft
Overcast 4900 ft
Dew Point 67 °F
Humidity 99%
Rainfall 0.00 in
Snow Depth Not available.
UV 0 out of 12
Pollen 9.80 out of 12
Air Quality Not available.
Flu Activity Not available.
METAR KTVC 040453Z 08005KT 10SM BKN033 OVC049 21/18 A2995 RMK AO2 SLP138 T02060183 402280206
Nowcast | as of 1:00 am EDT on September 4, 2015

At 2 am...mostly cloudy. Areas of fog. Temperature 67. Light winds. At 4 am...mostly cloudy. Areas of fog. Temperature 67. Light winds. At 6 am...mostly cloudy. Areas of fog. Scattered showers. Temperature 66. Light winds. At 8 am...mostly cloudy. Scattered showers and slight chance of thunderstorms. Temperature 66. Light winds.

×

10-Day Weather Forecast

×

Almanac

Astronomy

Sep. 04, 2015 Rise Set
Actual Time
Civil Twilight
Nautical Twilight
Astronomical Twilight
Moon
Length of Visible Light
Length of Day
Tomorrow will be .
, % of the Moon is Illuminated

Today's Extremes

State Highs State Lows

Community

WunderPhotos

Upload Photos

1,852,129 photos uploaded!

WunderBlogs® & News

Nearby

Air Quality

  Air Quality AQ Index Pollutant
Not available.

Snow Depth

Station Depth Elevation

Earthquake Activity

City Distance Mag. Time & Date
Minimum magnitude displayed is 2.5.

Coastal Water Temperatures

Place Temperature

Stations

Nearby Weather Stations

Station Location Temp. Windchill Dew Point Humidity Wind Precip. Elev Updated Type